Time;durP1;ratioP1;P1;durP2;ratioP2;P2;SDS_P1;SDS_P2;PMS_P1;PMS_P2;Temp;Humidity;BMP_temperature;BMP_pressure;BME280_temperature;BME280_humidity;BME280_pressure;Samples;Min_cycle;Max_cycle;Signal;HPM_P1;HPM_P2
2021/10/28 00:13:44;;;;;;;;;;;;;;;11.33;100.00;101594.53;5092266;28;19923;-72
2021/10/28 00:16:15;;;;;;;;;;;;;;;11.29;100.00;101593.00;5094681;28;19923;-73
2021/10/28 00:18:43;;;;;;;;;;;;;;;11.23;100.00;101588.88;5091797;28;19924;-72
2021/10/28 00:21:12;;;;;;;;;;;;;;;11.17;100.00;101595.63;5091918;28;20018;-72
2021/10/28 00:23:44;;;;;;;;;;;;;;;11.15;100.00;101599.44;5091560;28;19924;-72
2021/10/28 00:26:11;;;;;;;;;;;;;;;11.11;100.00;101596.06;5092008;28;19978;-72
2021/10/28 00:28:38;;;;;;;;;;;;;;;11.05;100.00;101602.78;5091865;28;19928;-72
2021/10/28 00:31:05;;;;;;;;;;;;;;;11.01;100.00;101597.66;5091706;28;19930;-72
2021/10/28 00:33:32;;;;;;;;;;;;;;;10.95;100.00;101598.97;5091899;28;20014;-71
2021/10/28 00:35:59;;;;;;;;;;;;;;;10.91;100.00;101605.59;5073503;28;19924;-72
2021/10/28 00:38:28;;;;;;;;;;;;;;;10.85;100.00;101609.59;5091945;28;19925;-72
2021/10/28 00:40:54;;;;;;;;;;;;;;;10.79;100.00;101592.84;5090707;28;20023;-72
2021/10/28 00:43:21;;;;;;;;;;;;;;;10.71;100.00;101604.22;5091760;28;20027;-72
2021/10/28 00:45:50;;;;;;;;;;;;;;;10.64;100.00;101605.63;5091643;28;19924;-72
2021/10/28 00:48:16;;;;;;;;;;;;;;;10.54;100.00;101608.06;5091603;28;19970;-72
2021/10/28 00:50:42;;;;;;;;;;;;;;;10.46;100.00;101605.00;5091301;28;20468;-72
2021/10/28 00:53:09;;;;;;;;;;;;;;;10.40;100.00;101609.00;5091627;28;19961;-72
2021/10/28 00:55:37;;;;;;;;;;;;;;;10.33;100.00;101604.94;5091754;28;19939;-72
2021/10/28 00:58:04;;;;;;;;;;;;;;;10.27;100.00;101606.19;5091296;28;19924;-72
2021/10/28 01:00:30;;;;;;;;;;;;;;;10.25;100.00;101607.25;5091231;28;20040;-72
2021/10/28 01:02:56;;;;;;;;;;;;;;;10.21;100.00;101612.91;5091288;28;20368;-72
2021/10/28 01:05:22;;;;;;;;;;;;;;;10.21;100.00;101615.63;5091483;28;19968;-72
2021/10/28 01:07:49;;;;;;;;;;;;;;;10.22;100.00;101614.66;5091199;28;19931;-72
2021/10/28 01:10:15;;;;;;;;;;;;;;;10.22;100.00;101603.81;5091106;28;20016;-71
2021/10/28 01:12:43;;;;;;;;;;;;;;;10.22;100.00;101614.66;5091565;28;19924;-72
2021/10/28 01:15:12;;;;;;;;;;;;;;;10.21;100.00;101612.91;5091065;28;19959;-71
2021/10/28 01:17:39;;;;;;;;;;;;;;;10.18;100.00;101612.22;5091591;28;20376;-72
2021/10/28 01:20:07;;;;;;;;;;;;;;;10.15;100.00;101613.28;5090969;28;19924;-72
2021/10/28 01:22:33;;;;;;;;;;;;;;;10.12;100.00;101608.06;5091496;28;19928;-71
2021/10/28 01:25:00;;;;;;;;;;;;;;;10.10;100.00;101606.44;5089869;28;20456;-72
2021/10/28 01:27:26;;;;;;;;;;;;;;;10.10;100.00;101606.44;5091259;28;20015;-72
2021/10/28 01:29:52;;;;;;;;;;;;;;;10.10;100.00;101611.84;5091442;28;19967;-72
2021/10/28 01:32:19;;;;;;;;;;;;;;;10.09;100.00;101619.13;5090658;28;19962;-72
2021/10/28 01:34:46;;;;;;;;;;;;;;;10.10;100.00;101610.03;5091297;28;19928;-72
2021/10/28 01:37:15;;;;;;;;;;;;;;;10.12;100.00;101615.34;5091157;28;19974;-74
2021/10/28 01:39:41;;;;;;;;;;;;;;;10.10;100.00;101614.56;5091182;28;19928;-74
2021/10/28 01:42:09;;;;;;;;;;;;;;;10.09;100.00;101607.41;5090835;28;20016;-73
2021/10/28 01:44:36;;;;;;;;;;;;;;;10.08;100.00;101606.53;5091230;28;19930;-73
2021/10/28 01:47:02;;;;;;;;;;;;;;;10.05;100.00;101613.03;5091096;28;19963;-73
2021/10/28 01:49:29;;;;;;;;;;;;;;;10.03;100.00;101605.97;5090693;28;19930;-73
2021/10/28 01:51:57;;;;;;;;;;;;;;;10.03;100.00;101605.97;5092172;28;19924;-72
2021/10/28 01:54:25;;;;;;;;;;;;;;;10.02;100.00;101607.81;5094798;28;19928;-73
2021/10/28 01:56:51;;;;;;;;;;;;;;;10.01;100.00;101607.94;5094977;28;20060;-73
2021/10/28 01:59:18;;;;;;;;;;;;;;;10.01;100.00;101608.78;5094531;28;19928;-73
2021/10/28 02:01:44;;;;;;;;;;;;;;;9.98;100.00;101609.00;5094475;28;20357;-73
2021/10/28 02:04:12;;;;;;;;;;;;;;;9.96;100.00;101608.19;5094664;28;19930;-73
2021/10/28 02:06:40;;;;;;;;;;;;;;;9.95;100.00;101605.59;5094604;28;19924;-73
2021/10/28 02:09:07;;;;;;;;;;;;;;;9.92;100.00;101600.38;5094464;28;20309;-73
2021/10/28 02:11:35;;;;;;;;;;;;;;;9.88;100.00;101602.41;5094282;28;20293;-73
2021/10/28 02:14:01;;;;;;;;;;;;;;;9.86;100.00;101605.22;5096896;28;19974;-73
2021/10/28 02:16:28;;;;;;;;;;;;;;;9.81;100.00;101599.22;5094628;28;20006;-73
2021/10/28 02:18:55;;;;;;;;;;;;;;;9.80;100.00;101596.63;5094505;28;20282;-72
2021/10/28 02:21:22;;;;;;;;;;;;;;;9.76;100.00;101598.63;5094029;28;20022;-71
2021/10/28 02:23:48;;;;;;;;;;;;;;;9.71;100.00;101598.06;5094400;28;19924;-73
2021/10/28 02:26:17;;;;;;;;;;;;;;;9.67;100.00;101596.50;5094027;28;20305;-73
2021/10/28 02:28:44;;;;;;;;;;;;;;;9.62;100.00;101587.81;5092837;28;20019;-73
2021/10/28 02:31:12;;;;;;;;;;;;;;;9.53;100.00;101590.13;5094213;28;20019;-73
2021/10/28 02:33:38;;;;;;;;;;;;;;;9.46;100.00;101588.78;5094045;28;20356;-73
2021/10/28 02:36:04;;;;;;;;;;;;;;;9.35;100.00;101584.03;5094577;28;20005;-73
2021/10/28 02:38:31;;;;;;;;;;;;;;;9.25;100.00;101584.72;5099764;28;19966;-73
2021/10/28 02:40:57;;;;;;;;;;;;;;;9.13;100.00;101584.50;5093990;28;20018;-73
2021/10/28 02:43:24;;;;;;;;;;;;;;;9.05;100.00;101589.50;5094144;28;20331;-74
2021/10/28 02:45:52;;;;;;;;;;;;;;;8.98;100.00;101593.53;5093540;28;19928;-73
2021/10/28 02:48:18;;;;;;;;;;;;;;;8.94;100.00;101597.41;5093903;28;19924;-73
2021/10/28 02:50:46;;;;;;;;;;;;;;;8.93;100.00;101585.72;5093399;28;20452;-74
2021/10/28 02:53:12;;;;;;;;;;;;;;;8.95;100.00;101593.72;5093928;28;19963;-73
2021/10/28 02:55:40;;;;;;;;;;;;;;;8.97;100.00;101591.81;5093754;28;20347;-73
2021/10/28 02:58:06;;;;;;;;;;;;;;;9.03;100.00;101594.13;5093870;28;19924;-73
2021/10/28 03:00:32;;;;;;;;;;;;;;;9.05;100.00;101592.22;5093957;28;19927;-73
2021/10/28 03:03:00;;;;;;;;;;;;;;;9.06;100.00;101588.56;5093169;28;19955;-73
2021/10/28 03:05:27;;;;;;;;;;;;;;;9.09;100.00;101590.22;5093633;28;19924;-72
2021/10/28 03:07:54;;;;;;;;;;;;;;;9.04;100.00;101588.63;5093243;28;19994;-73
2021/10/28 03:10:20;;;;;;;;;;;;;;;8.95;100.00;101591.91;5093439;28;19924;-73
2021/10/28 03:12:50;;;;;;;;;;;;;;;8.85;100.00;101597.00;5092592;28;19924;-73
2021/10/28 03:15:16;;;;;;;;;;;;;;;8.71;100.00;101596.94;5094504;28;19983;-74
2021/10/28 03:18:07;;;;;;;;;;;;;;;8.60;100.00;101594.03;5094481;28;20443;-73
2021/10/28 03:26:08;;;;;;;;;;;;;;;8.23;100.00;101594.31;5093923;28;19942;-73
2021/10/28 03:28:34;;;;;;;;;;;;;;;8.15;100.00;101591.16;5093630;28;19928;-73
2021/10/28 03:31:00;;;;;;;;;;;;;;;8.10;100.00;101596.84;5093041;28;19982;-74
2021/10/28 03:33:27;;;;;;;;;;;;;;;8.07;100.00;101597.03;5093494;28;19955;-74
2021/10/28 03:35:54;;;;;;;;;;;;;;;8.05;100.00;101604.34;5093471;28;19933;-74
2021/10/28 03:38:24;;;;;;;;;;;;;;;8.00;100.00;101591.09;5093557;28;19952;-74
2021/10/28 03:41:34;;;;;;;;;;;;;;;7.94;100.00;101602.25;5093091;28;20011;-73
2021/10/28 03:46:59;;;;;;;;;;;;;;;7.81;100.00;101604.75;5066991;28;19924;-73
2021/10/28 03:49:48;;;;;;;;;;;;;;;7.75;100.00;101602.41;5093300;28;20333;-73
2021/10/28 04:01:03;;;;;;;;;;;;;;;7.41;100.00;101598.84;5091385;28;20018;-72
2021/10/28 04:04:03;;;;;;;;;;;;;;;7.39;100.00;101608.84;5092837;28;19959;-72
2021/10/28 04:06:46;;;;;;;;;;;;;;;7.37;100.00;101610.75;5092681;28;19924;-72
2021/10/28 04:17:46;;;;;;;;;;;;;;;7.06;100.00;101596.19;5092058;28;20024;-73
2021/10/28 04:20:33;;;;;;;;;;;;;;;7.00;100.00;101596.50;5091821;28;20208;-73
2021/10/28 04:31:16;;;;;;;;;;;;;;;6.89;100.00;101598.91;5091749;28;19928;-73
2021/10/28 04:33:43;;;;;;;;;;;;;;;6.87;100.00;101594.44;5091951;28;19930;-73
2021/10/28 04:36:09;;;;;;;;;;;;;;;6.83;100.00;101598.25;5092299;28;19928;-73
2021/10/28 04:38:36;;;;;;;;;;;;;;;6.82;100.00;101603.75;5092467;28;19928;-73
2021/10/28 04:41:03;;;;;;;;;;;;;;;6.78;100.00;101600.31;5091857;28;19955;-73
2021/10/28 04:43:30;;;;;;;;;;;;;;;6.76;100.00;101596.84;5091927;28;20019;-73
2021/10/28 04:45:56;;;;;;;;;;;;;;;6.74;100.00;101593.34;5092118;28;19928;-73
2021/10/28 04:48:23;;;;;;;;;;;;;;;6.73;100.00;101606.91;5095670;28;20270;-73
2021/10/28 04:50:50;;;;;;;;;;;;;;;6.70;100.00;101602.53;5109564;28;19959;-73
2021/10/28 04:53:16;;;;;;;;;;;;;;;6.71;100.00;101601.59;5112252;28;20348;-73
2021/10/28 04:55:43;;;;;;;;;;;;;;;6.70;100.00;101606.09;5110650;28;19930;-73
2021/10/28 04:58:10;;;;;;;;;;;;;;;6.67;100.00;101598.16;5111763;28;20050;-74
2021/10/28 05:00:37;;;;;;;;;;;;;;;6.64;100.00;101598.34;5102090;28;20392;-73
2021/10/28 05:03:03;;;;;;;;;;;;;;;6.59;100.00;101594.09;5092537;28;20408;-73
2021/10/28 05:05:29;;;;;;;;;;;;;;;6.54;100.00;101592.50;5105513;28;19928;-73
2021/10/28 05:07:56;;;;;;;;;;;;;;;6.53;100.00;101598.88;5109893;28;19927;-73
2021/10/28 05:10:22;;;;;;;;;;;;;;;6.54;100.00;101595.22;5091291;28;19932;-72
2021/10/28 05:12:48;;;;;;;;;;;;;;;6.51;100.00;101602.59;5092380;28;19978;-73
2021/10/28 05:15:16;;;;;;;;;;;;;;;6.49;100.00;101600.00;5104937;28;20010;-72
2021/10/28 05:17:42;;;;;;;;;;;;;;;6.45;100.00;101597.50;5092569;28;20375;-73
2021/10/28 05:20:09;;;;;;;;;;;;;;;6.41;100.00;101598.63;5095321;28;19931;-73
2021/10/28 05:22:36;;;;;;;;;;;;;;;6.38;100.00;101596.94;5092412;28;20017;-73
2021/10/28 05:25:03;;;;;;;;;;;;;;;6.36;100.00;101596.16;5090749;28;20019;-72
2021/10/28 05:27:29;;;;;;;;;;;;;;;6.30;100.00;101594.63;5093584;28;20296;-72
2021/10/28 05:29:55;;;;;;;;;;;;;;;6.24;100.00;101594.94;5099068;28;19924;-72
2021/10/28 05:32:23;;;;;;;;;;;;;;;6.18;100.00;101595.22;5099250;28;20399;-73
2021/10/28 05:34:49;;;;;;;;;;;;;;;6.15;100.00;101592.69;5098663;28;19978;-73
2021/10/28 05:37:16;;;;;;;;;;;;;;;6.10;100.00;101597.44;5097525;28;21061;-74
2021/10/28 05:39:42;;;;;;;;;;;;;;;6.06;100.00;101604.78;5108450;28;20026;-73
2021/10/28 05:42:09;;;;;;;;;;;;;;;6.14;100.00;101609.81;5099600;28;20027;-74
2021/10/28 05:44:35;;;;;;;;;;;;;;;6.20;100.00;101601.44;5107817;28;20018;-73
2021/10/28 05:47:02;;;;;;;;;;;;;;;6.24;100.00;101596.75;5113001;28;19986;-74
2021/10/28 05:49:31;;;;;;;;;;;;;;;6.19;100.00;101597.84;5105234;28;19971;-73
2021/10/28 05:51:58;;;;;;;;;;;;;;;6.15;100.00;101592.69;5113148;28;19923;-73
2021/10/28 05:54:24;;;;;;;;;;;;;;;6.13;100.00;101595.47;5099745;28;19928;-73
2021/10/28 05:56:50;;;;;;;;;;;;;;;6.13;100.00;101590.09;5111069;28;19970;-73
2021/10/28 05:59:17;;;;;;;;;;;;;;;6.14;100.00;101604.41;5109260;28;19954;-73
2021/10/28 06:01:43;;;;;;;;;;;;;;;6.15;100.00;101600.78;5098238;28;20452;-73
2021/10/28 06:04:09;;;;;;;;;;;;;;;6.18;100.00;101598.78;5112312;28;19957;-73
2021/10/28 06:06:37;;;;;;;;;;;;;;;6.17;100.00;101594.38;5100318;28;20000;-73
2021/10/28 06:09:03;;;;;;;;;;;;;;;6.18;100.00;101596.09;5114840;28;19924;-74
2021/10/28 06:11:30;;;;;;;;;;;;;;;6.19;100.00;101597.84;5113456;28;20019;-73
2021/10/28 06:13:56;;;;;;;;;;;;;;;6.18;100.00;101595.22;5113165;28;19967;-73
2021/10/28 06:16:23;;;;;;;;;;;;;;;6.17;100.00;101604.25;5106888;28;20391;-73
2021/10/28 06:18:50;;;;;;;;;;;;;;;6.15;100.00;101604.34;5097417;28;19924;-73
2021/10/28 06:21:19;;;;;;;;;;;;;;;6.14;100.00;101601.72;5100257;28;20856;-73
2021/10/28 06:23:47;;;;;;;;;;;;;;;6.13;100.00;101608.94;5095776;28;19924;-73
2021/10/28 06:26:13;;;;;;;;;;;;;;;6.16;100.00;101605.19;5094016;28;20388;-73
2021/10/28 06:28:40;;;;;;;;;;;;;;;6.18;100.00;101606.00;5093871;28;19931;-73
2021/10/28 06:31:06;;;;;;;;;;;;;;;6.23;100.00;101605.78;5093525;28;19970;-73
2021/10/28 06:33:35;;;;;;;;;;;;;;;6.27;100.00;101612.78;5093735;28;20393;-73
2021/10/28 06:36:02;;;;;;;;;;;;;;;6.30;100.00;101607.25;5093427;28;19928;-73
2021/10/28 06:38:30;;;;;;;;;;;;;;;6.33;100.00;101601.69;5093277;28;19928;-73
2021/10/28 06:40:58;;;;;;;;;;;;;;;6.39;100.00;101606.78;5093428;28;19966;-73
2021/10/28 06:43:24;;;;;;;;;;;;;;;6.42;100.00;101603.94;5093778;28;20377;-73
2021/10/28 06:45:50;;;;;;;;;;;;;;;6.47;100.00;101601.03;5093406;28;19985;-73
2021/10/28 06:48:17;;;;;;;;;;;;;;;6.54;100.00;101608.69;5093125;28;20027;-73
2021/10/28 06:50:47;;;;;;;;;;;;;;;6.62;100.00;101605.63;5093650;28;20373;-73
2021/10/28 06:53:21;;;;;;;;;;;;;;;6.64;100.00;101600.16;5087708;28;20308;-73
2021/10/28 06:55:53;;;;;;;;;;;;;;;6.66;100.00;101601.81;5105022;28;19924;-72
2021/10/28 07:03:45;;;;;;;;;;;;;;;6.85;100.00;101599.06;5102309;28;19931;-73
2021/10/28 07:06:14;;;;;;;;;;;;;;;6.89;100.00;101591.66;5105172;28;19970;-73
2021/10/28 07:08:43;;;;;;;;;;;;;;;6.92;100.00;101594.22;5094759;28;19928;-72
2021/10/28 07:11:11;;;;;;;;;;;;;;;6.99;100.00;101586.69;5092461;28;19934;-73
2021/10/28 07:13:43;;;;;;;;;;;;;;;7.01;100.00;101596.41;5093359;28;20027;-72
2021/10/28 07:16:19;;;;;;;;;;;;;;;7.07;100.00;101587.16;5093487;28;20242;-73
2021/10/28 07:18:51;;;;;;;;;;;;;;;7.16;100.00;101588.47;5091916;28;19924;-72
2021/10/28 07:21:45;;;;;;;;;;;;;;;7.22;100.00;101592.69;5092595;28;19928;-73
2021/10/28 07:27:12;;;;;;;;;;;;;;;7.37;100.00;101586.44;5107198;28;20022;-72
2021/10/28 07:30:11;;;;;;;;;;;;;;;7.48;100.00;101581.34;5113011;28;19931;-73
2021/10/28 07:32:50;;;;;;;;;;;;;;;7.70;100.00;101586.44;5098111;28;19924;-73
2021/10/28 08:00:22;;;;;;;;;;;;;;;9.75;100.00;101563.50;5091911;28;19930;-73
2021/10/28 08:05:49;;;;;;;;;;;;;;;9.91;100.00;101547.09;5105774;28;20418;-73
2021/10/28 08:16:55;;;;;;;;;;;;;;;10.00;100.00;101549.22;5101019;28;19930;-73
2021/10/28 08:19:29;;;;;;;;;;;;;;;10.51;100.00;101538.56;5105526;28;20018;-74
2021/10/28 08:21:57;;;;;;;;;;;;;;;10.92;100.00;101531.28;5099903;28;20363;-74
2021/10/28 08:30:00;;;;;;;;;;;;;;;11.58;100.00;101522.97;5100132;28;19984;-74
2021/10/28 08:32:26;;;;;;;;;;;;;;;11.65;100.00;101521.56;5107302;28;19977;-73
2021/10/28 08:34:57;;;;;;;;;;;;;;;11.33;100.00;101521.16;5098728;27;20028;-72
2021/10/28 08:37:30;;;;;;;;;;;;;;;11.54;100.00;101516.00;5099155;28;19935;-74
2021/10/28 08:39:56;;;;;;;;;;;;;;;11.97;100.00;101512.00;5109744;28;19928;-73
2021/10/28 08:42:23;;;;;;;;;;;;;;;12.20;100.00;101508.44;5091470;28;20039;-73
2021/10/28 08:44:51;;;;;;;;;;;;;;;12.36;100.00;101499.97;5091660;28;19924;-73
2021/10/28 08:47:17;;;;;;;;;;;;;;;12.72;100.00;101502.69;5110980;28;19924;-73
2021/10/28 08:49:47;;;;;;;;;;;;;;;12.41;100.00;101499.59;5111715;28;19947;-73
2021/10/28 08:52:35;;;;;;;;;;;;;;;12.80;100.00;101492.06;5098141;28;19931;-72
2021/10/28 08:55:08;;;;;;;;;;;;;;;13.10;100.00;101497.94;5110764;28;19974;-72
2021/10/28 09:25:26;;;;;;;;;;;;;;;14.05;100.00;101475.66;5092095;28;20296;-72
2021/10/28 09:28:00;;;;;;;;;;;;;;;14.52;100.00;101473.47;5107451;28;20395;-72
2021/10/28 09:30:40;;;;;;;;;;;;;;;14.81;100.00;101469.22;5109922;28;19924;-73
2021/10/28 09:33:07;;;;;;;;;;;;;;;15.03;100.00;101462.72;5111195;28;19930;-73
2021/10/28 09:35:55;;;;;;;;;;;;;;;15.42;100.00;101465.66;5109432;28;19928;-73
2021/10/28 09:44:11;;;;;;;;;;;;;;;14.73;100.00;101458.97;5099908;28;19931;-73
2021/10/28 09:46:44;;;;;;;;;;;;;;;15.05;100.00;101460.72;5090562;28;19993;-73
2021/10/28 09:52:02;;;;;;;;;;;;;;;15.37;100.00;101456.97;5104503;28;20007;-73
2021/10/28 09:54:34;;;;;;;;;;;;;;;15.26;100.00;101459.81;5089953;28;19928;-73
2021/10/28 09:59:49;;;;;;;;;;;;;;;15.19;100.00;101456.75;5098850;28;19951;-71
2021/10/28 10:02:19;;;;;;;;;;;;;;;14.73;100.00;101461.69;5110281;28;19928;-72
2021/10/28 10:04:46;;;;;;;;;;;;;;;14.39;100.00;101461.84;5090675;28;20451;-72
2021/10/28 10:07:13;;;;;;;;;;;;;;;14.59;100.00;101465.59;5096853;28;19924;-73
2021/10/28 10:09:40;;;;;;;;;;;;;;;14.97;100.00;101463.28;5104929;28;20371;-72
2021/10/28 10:12:08;;;;;;;;;;;;;;;15.09;100.00;101455.88;5110664;28;20482;-72
2021/10/28 10:14:35;;;;;;;;;;;;;;;14.96;100.00;101458.81;5109310;28;20343;-73
2021/10/28 10:17:02;;;;;;;;;;;;;;;15.06;100.00;101449.66;5096375;28;20339;-72
2021/10/28 10:19:30;;;;;;;;;;;;;;;14.97;100.00;101452.34;5094122;28;20360;-72
2021/10/28 10:21:57;;;;;;;;;;;;;;;15.09;100.00;101456.72;5093663;28;19960;-72
2021/10/28 10:24:38;;;;;;;;;;;;;;;15.04;100.00;101448.91;5093817;28;19989;-72
2021/10/28 11:19:28;;;;;;;;;;;;;;;15.18;100.00;101420.34;5109881;28;19935;-74
2021/10/28 11:22:07;;;;;;;;;;;;;;;15.49;100.00;101411.25;5113388;28;19931;-73
2021/10/28 11:33:26;;;;;;;;;;;;;;;15.80;100.00;101381.91;5092869;28;19931;-73
2021/10/28 12:21:16;;;;;;;;;;;;;;;18.02;100.00;101337.44;5167458;27;19930;-75
2021/10/28 12:23:58;;;;;;;;;;;;;;;18.24;100.00;101325.09;5163830;27;20003;-74
2021/10/28 12:46:10;;;;;;;;;;;;;;;18.78;100.00;101312.19;5149365;27;19930;-74
2021/10/28 12:49:01;;;;;;;;;;;;;;;19.13;100.00;101304.78;5150348;27;19923;-73
2021/10/28 13:34:53;;;;;;;;;;;;;;;18.40;100.00;101263.03;5141695;27;19934;-75
2021/10/28 13:50:36;;;;;;;;;;;;;;;19.01;97.35;101254.72;5150260;27;19931;-75
2021/10/28 13:53:21;;;;;;;;;;;;;;;19.13;98.33;101253.38;5153982;27;19963;-74
2021/10/28 13:56:04;;;;;;;;;;;;;;;19.48;95.95;101245.88;5154533;27;19923;-74
2021/10/28 13:58:50;;;;;;;;;;;;;;;19.10;94.89;101253.72;5156191;27;19996;-73
2021/10/28 14:15:43;;;;;;;;;;;;;;;16.25;100.00;101249.00;5143903;27;19980;-74
2021/10/28 14:23:52;;;;;;;;;;;;;;;14.96;100.00;101229.19;5154493;27;19967;-74
2021/10/28 15:29:27;;;;;;;;;;;;;;;12.23;100.00;101181.56;5132503;27;19928;-76
2021/10/28 15:32:24;;;;;;;;;;;;;;;12.20;100.00;101189.13;5132993;27;19934;-76
2021/10/28 15:37:37;;;;;;;;;;;;;;;12.11;100.00;101168.97;5131729;27;19970;-77
2021/10/28 15:40:10;;;;;;;;;;;;;;;12.06;100.00;101168.47;5136922;27;20293;-76
2021/10/28 15:43:03;;;;;;;;;;;;;;;12.04;100.00;101175.91;5148258;27;19923;-76
2021/10/28 15:53:58;;;;;;;;;;;;;;;11.66;100.00;101183.34;5119831;27;20391;-75
2021/10/28 15:59:42;;;;;;;;;;;;;;;11.52;100.00;101181.72;5150654;27;19934;-76
2021/10/28 16:24:12;;;;;;;;;;;;;;;10.37;100.00;101169.56;5063757;28;19928;-75
2021/10/28 16:26:39;;;;;;;;;;;;;;;10.36;100.00;101170.53;5131108;27;20018;-75
2021/10/28 16:29:09;;;;;;;;;;;;;;;10.33;100.00;101170.75;5167773;27;20344;-76
2021/10/28 16:31:36;;;;;;;;;;;;;;;10.23;100.00;101165.09;5167567;27;19929;-76
2021/10/28 16:34:02;;;;;;;;;;;;;;;10.15;100.00;101170.22;5132309;28;19923;-75
2021/10/28 16:36:29;;;;;;;;;;;;;;;10.02;100.00;101175.66;5137047;27;19923;-75
2021/10/28 16:38:57;;;;;;;;;;;;;;;10.00;100.00;101167.63;5143232;27;19924;-76
2021/10/28 16:41:23;;;;;;;;;;;;;;;10.02;100.00;101164.81;5133182;27;19935;-76
2021/10/28 16:43:50;;;;;;;;;;;;;;;10.01;100.00;101171.25;5148138;27;19923;-76
2021/10/28 16:46:18;;;;;;;;;;;;;;;10.00;100.00;101167.63;5149974;27;20391;-75
2021/10/28 16:48:44;;;;;;;;;;;;;;;9.95;100.00;101166.25;5131404;27;20025;-75
2021/10/28 16:51:11;;;;;;;;;;;;;;;9.98;100.00;101160.59;5136939;27;19980;-74
2021/10/28 16:53:38;;;;;;;;;;;;;;;9.92;100.00;101158.34;5152556;27;19923;-74
2021/10/28 16:56:04;;;;;;;;;;;;;;;9.91;100.00;101156.59;5153365;27;19988;-74
2021/10/28 16:58:31;;;;;;;;;;;;;;;9.92;100.00;101158.34;5155915;27;20349;-74
2021/10/28 17:00:57;;;;;;;;;;;;;;;10.03;100.00;101159.31;5136137;27;20322;-74
2021/10/28 17:03:25;;;;;;;;;;;;;;;10.06;100.00;101163.59;5135900;27;19977;-76
2021/10/28 17:05:51;;;;;;;;;;;;;;;10.04;100.00;101155.59;5151746;27;20410;-74
2021/10/28 17:08:18;;;;;;;;;;;;;;;10.02;100.00;101153.97;5149750;27;19959;-76
2021/10/28 17:10:44;;;;;;;;;;;;;;;10.02;100.00;101151.25;5148887;27;19923;-75
2021/10/28 17:13:11;;;;;;;;;;;;;;;9.93;100.00;101147.38;5153903;27;20334;-75
2021/10/28 17:15:37;;;;;;;;;;;;;;;9.92;100.00;101152.91;5148970;27;19958;-75
2021/10/28 17:18:03;;;;;;;;;;;;;;;9.94;100.00;101153.66;5155144;27;20132;-76
2021/10/28 17:20:34;;;;;;;;;;;;;;;9.92;100.00;101150.19;5139803;27;19930;-76
2021/10/28 17:23:01;;;;;;;;;;;;;;;9.88;100.00;101149.53;5140145;27;19927;-76
2021/10/28 17:25:28;;;;;;;;;;;;;;;9.82;100.00;101145.44;5150282;27;19974;-76
2021/10/28 17:27:55;;;;;;;;;;;;;;;9.71;100.00;101145.31;5151540;27;20021;-75
2021/10/28 17:30:22;;;;;;;;;;;;;;;9.65;100.00;101143.06;5151440;27;19970;-75
2021/10/28 17:32:48;;;;;;;;;;;;;;;9.59;100.00;101141.63;5137999;27;19959;-75
2021/10/28 17:35:15;;;;;;;;;;;;;;;9.58;100.00;101139.91;5137210;27;20003;-75
2021/10/28 17:37:42;;;;;;;;;;;;;;;9.55;100.00;101130.16;5155573;27;20340;-75
2021/10/28 17:40:10;;;;;;;;;;;;;;;9.60;100.00;101132.53;5154363;27;20021;-75
2021/10/28 17:42:37;;;;;;;;;;;;;;;9.63;100.00;101126.88;5134517;27;19967;-75
2021/10/28 17:45:04;;;;;;;;;;;;;;;9.74;100.00;101128.84;5134635;27;20027;-75
2021/10/28 17:47:31;;;;;;;;;;;;;;;9.74;100.00;101128.84;5148007;27;19984;-75
2021/10/28 17:49:57;;;;;;;;;;;;;;;9.79;100.00;101131.22;5137805;27;20311;-75
2021/10/28 17:52:24;;;;;;;;;;;;;;;9.94;100.00;101127.41;5150896;27;19923;-75
2021/10/28 17:54:52;;;;;;;;;;;;;;;10.09;100.00;101129.97;5155019;27;19975;-75
2021/10/28 17:57:18;;;;;;;;;;;;;;;10.10;100.00;101120.88;5153380;27;20047;-75
2021/10/28 17:59:45;;;;;;;;;;;;;;;10.15;100.00;101121.41;5155062;27;19923;-75
2021/10/28 18:02:12;;;;;;;;;;;;;;;10.20;100.00;101128.22;5152387;27;19935;-75
2021/10/28 18:04:38;;;;;;;;;;;;;;;10.41;100.00;101124.94;5140301;27;19967;-75
2021/10/28 18:07:05;;;;;;;;;;;;;;;10.42;100.00;101114.94;5134145;27;20380;-75
2021/10/28 18:09:31;;;;;;;;;;;;;;;10.41;100.00;101124.94;5147597;27;19997;-75
2021/10/28 18:11:59;;;;;;;;;;;;;;;10.44;100.00;101118.44;5144818;27;19948;-75
2021/10/28 18:14:27;;;;;;;;;;;;;;;10.47;100.00;101123.63;5154569;27;20268;-75
2021/10/28 18:16:54;;;;;;;;;;;;;;;10.49;100.00;101117.09;5153983;27;19931;-75
2021/10/28 18:19:20;;;;;;;;;;;;;;;10.43;100.00;101112.09;5149596;27;20014;-75
2021/10/28 18:21:52;;;;;;;;;;;;;;;10.40;100.00;101114.22;5150079;27;19923;-75
2021/10/28 18:24:18;;;;;;;;;;;;;;;10.35;100.00;101109.97;5154359;27;20034;-75
2021/10/28 18:26:45;;;;;;;;;;;;;;;10.33;100.00;101105.63;5154573;27;19977;-75
2021/10/28 18:29:12;;;;;;;;;;;;;;;10.30;100.00;101111.25;5154741;27;19923;-75
2021/10/28 18:31:39;;;;;;;;;;;;;;;10.29;100.00;101104.09;5154112;27;20022;-75
2021/10/28 18:34:06;;;;;;;;;;;;;;;10.28;100.00;101107.81;5154908;27;20022;-75
2021/10/28 18:36:34;;;;;;;;;;;;;;;10.22;100.00;101112.69;5154573;27;19927;-74
2021/10/28 18:39:00;;;;;;;;;;;;;;;10.28;100.00;101108.66;5154173;27;19927;-75
2021/10/28 18:41:26;;;;;;;;;;;;;;;10.29;100.00;101113.13;5154501;27;19923;-74
2021/10/28 18:43:53;;;;;;;;;;;;;;;10.28;100.00;101107.81;5153016;27;19971;-76
2021/10/28 18:46:22;;;;;;;;;;;;;;;10.24;100.00;101109.88;5154662;27;20013;-75
2021/10/28 18:48:48;;;;;;;;;;;;;;;10.21;100.00;101102.81;5154655;27;19927;-75
2021/10/28 18:51:15;;;;;;;;;;;;;;;10.23;100.00;101102.69;5144081;27;19963;-75
2021/10/28 18:53:44;;;;;;;;;;;;;;;10.16;100.00;101093.31;5150385;27;19948;-75
2021/10/28 18:56:10;;;;;;;;;;;;;;;10.19;100.00;101095.78;5143333;27;19941;-74
2021/10/28 18:58:37;;;;;;;;;;;;;;;10.11;100.00;101096.34;5134836;27;19969;-75
2021/10/28 19:01:03;;;;;;;;;;;;;;;10.02;100.00;101091.56;5133081;27;20388;-76
2021/10/28 19:03:31;;;;;;;;;;;;;;;9.98;100.00;101090.06;5140567;27;19969;-75
2021/10/28 19:05:58;;;;;;;;;;;;;;;9.98;100.00;101087.34;5153078;27;19923;-75
2021/10/28 19:08:25;;;;;;;;;;;;;;;10.01;100.00;101084.44;5148256;27;20409;-75
2021/10/28 19:10:51;;;;;;;;;;;;;;;9.94;100.00;101088.56;5153829;27;19924;-75
2021/10/28 19:13:18;;;;;;;;;;;;;;;9.87;100.00;101086.31;5152923;27;19971;-76
2021/10/28 19:15:44;;;;;;;;;;;;;;;9.79;100.00;101085.13;5154073;27;20029;-75
2021/10/28 19:18:11;;;;;;;;;;;;;;;9.76;100.00;101088.94;5153414;27;19950;-75
2021/10/28 19:20:39;;;;;;;;;;;;;;;9.67;100.00;101089.59;5153823;27;19946;-75
2021/10/28 19:23:06;;;;;;;;;;;;;;;9.60;100.00;101085.59;5153688;27;19954;-75
2021/10/28 19:25:33;;;;;;;;;;;;;;;9.52;100.00;101073.44;5153240;27;20272;-75
2021/10/28 19:28:00;;;;;;;;;;;;;;;9.44;100.00;101074.97;5136234;27;19966;-75
2021/10/28 19:30:30;;;;;;;;;;;;;;;9.36;100.00;101070.94;5146829;27;19923;-76
2021/10/28 19:33:00;;;;;;;;;;;;;;;9.30;100.00;101065.97;5153604;27;19929;-76
2021/10/28 19:35:28;;;;;;;;;;;;;;;9.23;100.00;101066.50;5153510;27;19970;-75
2021/10/28 19:38:02;;;;;;;;;;;;;;;9.16;100.00;101072.34;5152786;27;19927;-75
2021/10/28 19:40:49;;;;;;;;;;;;;;;9.13;100.00;101078.00;5153223;27;19923;-75
2021/10/28 19:46:10;;;;;;;;;;;;;;;9.08;100.00;101072.03;5153548;27;19930;-76
2021/10/28 19:48:38;;;;;;;;;;;;;;;9.02;100.00;101069.75;5151772;27;19924;-74
2021/10/28 19:51:05;;;;;;;;;;;;;;;9.04;100.00;101067.78;5147684;27;19953;-76
2021/10/28 19:53:33;;;;;;;;;;;;;;;9.07;100.00;101062.16;5130056;27;19923;-75
2021/10/28 19:56:09;;;;;;;;;;;;;;;9.04;100.00;101055.13;5132578;27;20250;-75
2021/10/28 19:58:35;;;;;;;;;;;;;;;8.96;100.00;101059.34;5130729;27;20388;-74
2021/10/28 20:01:07;;;;;;;;;;;;;;;8.93;100.00;101065.84;5130274;27;19923;-77
2021/10/28 20:03:46;;;;;;;;;;;;;;;8.91;100.00;101062.34;5131948;28;19931;-77